Time;durP1;ratioP1;P1;durP2;ratioP2;P2;SDS_P1;SDS_P2;PMS_P1;PMS_P2;Temp;Humidity;BMP_temperature;BMP_pressure;BME280_temperature;BME280_humidity;BME280_pressure;Samples;Min_cycle;Max_cycle;Signal;HPM_P1;HPM_P2
2023/09/14 00:00:43;;;;;;;11.52;4.18;;;16.30;99.90;;;;;;5075747;28;20024;-73
2023/09/14 00:03:09;;;;;;;9.30;4.30;;;16.30;99.90;;;;;;5076252;28;20099;-71
2023/09/14 00:05:46;;;;;;;8.40;4.60;;;16.30;99.90;;;;;;5080972;28;20428;-70
2023/09/14 00:08:14;;;;;;;6.10;4.10;;;16.20;99.90;;;;;;5069405;28;20489;-70
2023/09/14 00:10:41;;;;;;;8.20;4.82;;;16.10;99.90;;;;;;5071422;28;20043;-71
2023/09/14 00:13:07;;;;;;;12.05;5.40;;;16.10;99.90;;;;;;5075093;28;20021;-71
2023/09/14 00:15:33;;;;;;;11.82;5.43;;;16.10;99.90;;;;;;5076836;28;20096;-71
2023/09/14 00:18:00;;;;;;;10.95;4.60;;;16.00;99.90;;;;;;5076551;28;20037;-71
2023/09/14 00:20:27;;;;;;;10.07;5.15;;;16.00;99.90;;;;;;5074774;28;20031;-71
2023/09/14 00:22:55;;;;;;;6.20;4.32;;;16.00;99.90;;;;;;5077011;28;20033;-71
2023/09/14 00:25:21;;;;;;;8.63;4.72;;;16.10;99.90;;;;;;5075297;28;20016;-71
2023/09/14 00:27:47;;;;;;;7.50;4.20;;;16.00;99.90;;;;;;5065931;28;20036;-72
2023/09/14 00:30:13;;;;;;;13.15;3.95;;;16.10;99.90;;;;;;5076044;28;20061;-72
2023/09/14 00:32:40;;;;;;;8.38;4.63;;;16.00;99.90;;;;;;5082785;28;20020;-71
2023/09/14 00:35:13;;;;;;;9.30;4.82;;;15.90;99.90;;;;;;5064684;28;20526;-72
2023/09/14 00:37:39;;;;;;;5.00;4.10;;;15.90;99.90;;;;;;5074774;28;20031;-72
2023/09/14 00:40:12;;;;;;;6.85;3.72;;;15.80;99.90;;;;;;5070440;28;20033;-72
2023/09/14 00:42:45;;;;;;;7.05;4.55;;;15.90;99.90;;;;;;5081204;28;20065;-72
2023/09/14 00:45:12;;;;;;;;;;;15.90;99.90;;;;;;5071743;28;20032;-72
2023/09/14 00:47:40;;;;;;;6.38;4.57;;;15.90;99.90;;;;;;5079413;28;19908;-72
2023/09/14 00:50:07;;;;;;;9.63;5.25;;;15.90;99.90;;;;;;5074660;28;20359;-72
2023/09/14 00:52:35;;;;;;;3.58;3.28;;;15.90;99.90;;;;;;5073668;28;20029;-72
2023/09/14 00:55:04;;;;;;;9.00;4.13;;;15.80;99.90;;;;;;5077392;28;20017;-72
2023/09/14 00:57:30;;;;;;;10.00;4.10;;;15.80;99.90;;;;;;5069598;28;20025;-71
2023/09/14 00:59:56;;;;;;;8.95;3.78;;;15.80;99.90;;;;;;5072513;28;20021;-71
2023/09/14 01:02:22;;;;;;;11.60;3.75;;;15.80;99.90;;;;;;5078259;28;20035;-72
2023/09/14 01:04:48;;;;;;;7.68;3.95;;;15.70;99.90;;;;;;5067117;28;20029;-72
2023/09/14 01:07:18;;;;;;;5.30;3.60;;;15.70;99.90;;;;;;5026840;28;1533574;-71
2023/09/14 01:09:44;;;;;;;10.55;4.25;;;15.70;99.90;;;;;;5076881;28;20038;-71
2023/09/14 01:12:10;;;;;;;6.90;4.80;;;15.70;99.90;;;;;;5068933;28;20024;-72
2023/09/14 01:15:05;;;;;;;9.65;4.72;;;15.70;99.90;;;;;;5075248;28;20035;-71
2023/09/14 01:17:34;;;;;;;10.05;5.10;;;15.60;99.90;;;;;;5061827;28;20051;-72
2023/09/14 01:20:07;;;;;;;10.80;4.50;;;15.60;99.90;;;;;;5068082;28;20077;-72
2023/09/14 01:22:45;;;;;;;6.53;4.35;;;15.60;99.90;;;;;;5075000;28;20052;-72
2023/09/14 01:25:19;;;;;;;7.95;4.65;;;15.60;99.90;;;;;;5069503;28;20031;-72
2023/09/14 01:27:45;;;;;;;7.57;4.93;;;15.60;99.90;;;;;;5073724;28;20079;-71
2023/09/14 01:30:11;;;;;;;13.93;4.63;;;15.60;99.90;;;;;;5073087;28;20025;-71
2023/09/14 01:32:37;;;;;;;9.15;5.20;;;15.60;99.90;;;;;;5068713;28;20380;-71
2023/09/14 01:35:04;;;;;;;6.20;4.10;;;15.50;99.90;;;;;;5080010;28;20031;-71
2023/09/14 01:37:31;;;;;;;9.77;4.55;;;15.40;99.90;;;;;;5067937;28;20079;-71
2023/09/14 01:39:58;;;;;;;5.85;4.43;;;15.40;99.90;;;;;;5078868;28;20431;-72
2023/09/14 01:42:24;;;;;;;5.88;4.53;;;15.40;99.90;;;;;;5075612;28;20178;-72
2023/09/14 01:44:50;;;;;;;7.57;4.30;;;15.40;99.90;;;;;;5075080;28;20499;-72
2023/09/14 01:47:16;;;;;;;9.35;4.50;;;15.40;99.90;;;;;;5075729;28;20032;-72
2023/09/14 01:49:43;;;;;;;11.70;5.15;;;15.30;99.90;;;;;;5063064;28;20029;-71
2023/09/14 01:52:10;;;;;;;9.45;5.05;;;15.40;99.90;;;;;;5072463;28;20434;-71
2023/09/14 01:54:35;;;;;;;10.02;5.60;;;15.30;99.90;;;;;;5079808;28;20081;-72
2023/09/14 01:57:01;;;;;;;7.82;4.90;;;15.30;99.90;;;;;;5071031;28;20055;-72
2023/09/14 01:59:27;;;;;;;12.90;5.32;;;15.20;99.90;;;;;;5074333;28;20032;-71
2023/09/14 02:01:53;;;;;;;8.68;4.82;;;15.20;99.90;;;;;;5075318;28;20017;-71
2023/09/14 02:04:19;;;;;;;9.07;4.85;;;15.20;99.90;;;;;;5076679;28;20020;-71
2023/09/14 02:06:44;;;;;;;11.50;5.85;;;15.20;99.90;;;;;;5062025;28;20025;-71
2023/09/14 02:09:10;;;;;;;9.43;5.25;;;15.20;99.90;;;;;;5077197;28;20024;-72
2023/09/14 02:11:36;;;;;;;10.73;5.68;;;15.10;99.90;;;;;;5073632;28;20132;-71
2023/09/14 02:14:01;;;;;;;8.50;5.13;;;15.10;99.90;;;;;;5090325;28;20124;-71
2023/09/14 02:16:27;;;;;;;9.82;3.85;;;15.10;99.90;;;;;;5073998;28;20025;-71
2023/09/14 02:18:53;;;;;;;7.90;4.60;;;15.10;99.90;;;;;;5070607;28;20139;-71
2023/09/14 02:21:19;;;;;;;11.55;3.97;;;15.10;99.90;;;;;;5078520;28;20725;-71
2023/09/14 02:23:44;;;;;;;6.07;4.07;;;15.10;99.90;;;;;;5077151;28;20032;-72
2023/09/14 02:26:10;;;;;;;5.50;3.95;;;15.10;99.90;;;;;;5077807;28;20024;-71
2023/09/14 02:28:36;;;;;;;9.63;4.25;;;15.10;99.90;;;;;;5070352;28;20690;-71
2023/09/14 02:31:11;;;;;;;9.32;4.63;;;15.10;99.90;;;;;;5075383;28;20028;-71
2023/09/14 02:33:37;;;;;;;9.93;4.28;;;15.10;99.90;;;;;;5071612;28;20029;-71
2023/09/14 02:36:03;;;;;;;5.60;3.97;;;15.00;99.90;;;;;;5070745;28;20055;-71
2023/09/14 02:38:29;;;;;;;11.63;4.47;;;15.00;99.90;;;;;;5079695;28;20135;-72
2023/09/14 02:40:54;;;;;;;5.28;4.15;;;14.90;99.90;;;;;;5067062;28;20039;-71
2023/09/14 02:43:20;;;;;;;9.95;4.35;;;14.90;99.90;;;;;;5078705;28;20028;-71
2023/09/14 02:45:45;;;;;;;6.82;4.60;;;14.90;99.90;;;;;;5077960;28;20016;-71
2023/09/14 02:48:11;;;;;;;7.32;5.25;;;14.90;99.90;;;;;;5067480;28;20109;-71
2023/09/14 02:50:37;;;;;;;9.25;4.55;;;14.90;99.90;;;;;;5071723;28;20362;-71
2023/09/14 02:53:02;;;;;;;7.53;4.72;;;14.90;99.90;;;;;;5081285;28;20474;-71
2023/09/14 02:55:28;;;;;;;10.35;5.07;;;14.90;99.90;;;;;;5073089;28;20715;-70
2023/09/14 02:57:54;;;;;;;8.18;5.53;;;14.90;99.90;;;;;;5076747;28;20124;-71
2023/09/14 03:00:19;;;;;;;9.65;5.22;;;14.80;99.90;;;;;;5068042;28;20413;-71
2023/09/14 03:02:45;;;;;;;9.77;5.10;;;14.90;99.90;;;;;;5074709;28;20445;-71
2023/09/14 03:05:11;;;;;;;7.45;5.47;;;14.80;99.90;;;;;;5069369;28;20095;-71
2023/09/14 03:07:38;;;;;;;14.73;5.50;;;14.80;99.90;;;;;;5072424;28;20384;-71
2023/09/14 03:10:04;;;;;;;11.30;5.70;;;14.80;99.90;;;;;;5075748;28;20086;-71
2023/09/14 03:12:30;;;;;;;10.77;5.70;;;14.80;99.90;;;;;;5074111;28;20016;-71
2023/09/14 03:14:56;;;;;;;9.00;4.80;;;14.70;99.90;;;;;;5070430;28;20453;-71
2023/09/14 03:17:21;;;;;;;7.95;6.03;;;14.70;99.90;;;;;;5074004;28;20043;-71
2023/09/14 03:19:48;;;;;;;13.05;5.30;;;14.70;99.90;;;;;;5080012;28;20043;-71
2023/09/14 03:22:14;;;;;;;10.00;5.25;;;14.60;99.90;;;;;;5078958;28;20028;-71
2023/09/14 03:24:40;;;;;;;7.82;5.10;;;14.60;99.90;;;;;;5069447;28;20489;-71
2023/09/14 03:27:06;;;;;;;8.65;4.50;;;14.60;99.90;;;;;;5076977;28;20012;-71
2023/09/14 03:29:32;;;;;;;9.00;4.78;;;14.60;99.90;;;;;;5073720;28;20028;-71
2023/09/14 03:31:58;;;;;;;9.05;5.18;;;14.60;99.90;;;;;;5072144;28;20028;-71
2023/09/14 03:34:24;;;;;;;9.20;4.75;;;14.60;99.90;;;;;;5079525;28;20503;-71
2023/09/14 03:36:50;;;;;;;6.38;4.80;;;14.60;99.90;;;;;;5068251;28;20028;-71
2023/09/14 03:39:15;;;;;;;9.90;4.90;;;14.60;99.90;;;;;;5075697;28;20557;-71
2023/09/14 03:41:41;;;;;;;10.90;5.13;;;14.50;99.90;;;;;;5067307;28;20075;-71
2023/09/14 03:44:07;;;;;;;6.85;4.45;;;14.50;99.90;;;;;;5073878;28;20032;-71
2023/09/14 03:46:32;;;;;;;9.38;4.85;;;14.50;99.90;;;;;;5066323;28;20062;-71
2023/09/14 03:48:58;;;;;;;14.73;5.13;;;14.50;99.90;;;;;;5074568;28;20090;-71
2023/09/14 03:51:24;;;;;;;10.43;4.82;;;14.50;99.90;;;;;;5078853;28;20092;-71
2023/09/14 03:53:49;;;;;;;9.60;4.88;;;14.50;99.90;;;;;;5063697;28;20444;-71
2023/09/14 03:56:15;;;;;;;10.35;5.13;;;14.50;99.90;;;;;;5076551;28;20099;-71
2023/09/14 03:58:42;;;;;;;12.02;4.85;;;14.50;99.90;;;;;;5073943;28;20116;-71
2023/09/14 04:01:09;;;;;;;9.35;5.32;;;14.50;99.90;;;;;;5070522;28;20081;-71
2023/09/14 04:03:34;;;;;;;7.88;5.68;;;14.50;99.90;;;;;;5070221;28;20526;-71
2023/09/14 04:06:00;;;;;;;7.72;5.25;;;14.50;99.90;;;;;;5082630;28;20021;-71
2023/09/14 04:08:26;;;;;;;9.55;5.15;;;14.40;99.90;;;;;;5076127;28;20032;-71
2023/09/14 04:10:52;;;;;;;11.88;5.35;;;14.40;99.90;;;;;;5074071;28;20025;-71
2023/09/14 04:13:29;;;;;;;10.45;5.70;;;14.50;99.90;;;;;;5082075;28;20078;-71
2023/09/14 04:15:56;;;;;;;13.85;5.43;;;14.50;99.90;;;;;;5073674;28;20021;-71
2023/09/14 04:18:22;;;;;;;7.63;5.30;;;14.40;99.90;;;;;;5072470;28;20068;-71
2023/09/14 04:20:48;;;;;;;10.02;5.10;;;14.40;99.90;;;;;;5075196;28;20070;-71
2023/09/14 04:23:14;;;;;;;10.23;5.88;;;14.20;99.90;;;;;;5076920;28;20504;-71
2023/09/14 04:25:46;;;;;;;8.20;5.13;;;14.10;99.90;;;;;;5074196;28;20012;-71
2023/09/14 04:28:17;;;;;;;6.80;4.63;;;14.10;99.90;;;;;;5079860;28;20032;-72
2023/09/14 04:30:48;;;;;;;8.98;4.75;;;14.20;99.90;;;;;;5073803;28;20134;-71
2023/09/14 04:33:15;;;;;;;7.05;4.80;;;14.20;99.90;;;;;;5076700;28;20040;-71
2023/09/14 04:35:41;;;;;;;11.55;4.78;;;14.30;99.90;;;;;;5074639;28;20074;-70
2023/09/14 04:38:08;;;;;;;9.60;4.38;;;14.20;99.90;;;;;;5079789;28;20059;-71
2023/09/14 04:40:38;;;;;;;13.55;4.88;;;14.20;99.90;;;;;;5076357;28;20551;-71
2023/09/14 04:43:05;;;;;;;8.60;4.68;;;14.20;99.90;;;;;;5066189;28;20575;-71
2023/09/14 04:45:30;;;;;;;11.82;4.60;;;14.20;99.90;;;;;;5072772;28;20047;-71
2023/09/14 04:47:57;;;;;;;7.32;4.40;;;14.20;99.90;;;;;;5082329;28;20524;-71
2023/09/14 04:50:23;;;;;;;13.98;5.00;;;14.20;99.90;;;;;;5069275;28;20043;-71
2023/09/14 04:52:49;;;;;;;12.35;5.43;;;14.20;99.90;;;;;;5077950;28;20017;-71
2023/09/14 04:55:14;;;;;;;9.68;4.97;;;14.20;99.90;;;;;;5078747;28;20059;-71
2023/09/14 04:57:40;;;;;;;9.80;4.43;;;14.20;99.90;;;;;;5071080;28;20446;-71
2023/09/14 05:00:09;;;;;;;11.18;4.45;;;14.10;99.90;;;;;;5078666;28;20035;-71
2023/09/14 05:02:35;;;;;;;10.02;4.70;;;14.00;99.90;;;;;;5075297;28;20067;-71
2023/09/14 05:05:02;;;;;;;5.80;3.88;;;14.00;99.90;;;;;;5079083;28;20401;-71
2023/09/14 05:07:28;;;;;;;8.77;4.10;;;14.10;99.90;;;;;;5077788;28;20380;-71
2023/09/14 05:09:53;;;;;;;12.05;4.45;;;14.10;99.90;;;;;;5075763;28;20143;-71
2023/09/14 05:12:19;;;;;;;7.15;4.03;;;14.10;99.90;;;;;;5070018;28;20468;-71
2023/09/14 05:14:45;;;;;;;15.55;4.45;;;14.10;99.90;;;;;;5073239;28;20055;-71
2023/09/14 05:17:11;;;;;;;7.78;4.43;;;14.10;99.90;;;;;;5077755;28;20486;-71
2023/09/14 05:19:42;;;;;;;10.40;5.03;;;14.10;99.90;;;;;;5078451;28;20028;-71
2023/09/14 05:22:09;;;;;;;19.65;4.40;;;14.00;99.90;;;;;;5068829;28;20085;-71
2023/09/14 05:24:37;;;;;;;11.43;4.78;;;14.00;99.90;;;;;;5073434;28;20099;-72
2023/09/14 05:27:03;;;;;;;12.02;4.93;;;14.00;99.90;;;;;;5069546;28;20029;-73
2023/09/14 05:29:29;;;;;;;19.10;5.20;;;14.00;99.90;;;;;;5069495;28;20385;-72
2023/09/14 05:31:55;;;;;;;10.07;4.60;;;14.00;99.90;;;;;;5067632;28;20032;-72
2023/09/14 05:34:20;;;;;;;8.88;4.30;;;14.00;99.90;;;;;;5077001;28;20016;-71
2023/09/14 05:36:46;;;;;;;13.73;4.70;;;14.10;99.90;;;;;;5072587;28;20031;-71
2023/09/14 05:39:12;;;;;;;6.22;4.43;;;14.00;99.90;;;;;;5072756;28;20366;-70
2023/09/14 05:41:40;;;;;;;8.18;4.45;;;14.00;99.90;;;;;;5073712;28;20025;-70
2023/09/14 05:44:09;;;;;;;9.18;4.18;;;14.00;99.90;;;;;;5075231;28;20103;-70
2023/09/14 05:46:35;;;;;;;8.18;4.82;;;14.00;99.90;;;;;;5083396;28;20023;-70
2023/09/14 05:49:01;;;;;;;7.00;4.65;;;14.00;99.90;;;;;;5070713;28;20238;-70
2023/09/14 05:51:28;;;;;;;6.82;4.75;;;13.90;99.90;;;;;;5080575;28;20491;-71
2023/09/14 05:53:54;;;;;;;10.93;4.68;;;14.00;99.90;;;;;;5068908;28;20118;-71
2023/09/14 05:56:20;;;;;;;7.65;4.28;;;13.90;99.90;;;;;;5077822;28;20035;-71
2023/09/14 05:58:46;;;;;;;10.23;4.90;;;14.00;99.90;;;;;;5072045;28;20040;-71
2023/09/14 06:01:12;;;;;;;11.82;5.55;;;13.90;99.90;;;;;;5075629;28;20372;-72
2023/09/14 06:03:37;;;;;;;10.90;4.43;;;14.00;99.90;;;;;;5075990;28;20521;-71
2023/09/14 06:06:03;;;;;;;9.05;5.40;;;14.00;99.90;;;;;;5075731;28;20415;-71
2023/09/14 06:08:29;;;;;;;8.13;5.10;;;14.00;99.90;;;;;;5066096;28;20671;-71
2023/09/14 06:10:54;;;;;;;19.23;5.68;;;13.90;99.90;;;;;;5078810;28;20050;-71
2023/09/14 06:13:20;;;;;;;13.50;6.25;;;13.90;99.90;;;;;;5082359;28;20016;-71
2023/09/14 06:15:47;;;;;;;10.43;5.22;;;13.90;99.90;;;;;;5069995;28;20386;-70
2023/09/14 06:18:12;;;;;;;21.48;6.45;;;13.90;99.90;;;;;;5082014;28;20029;-70
2023/09/14 06:20:38;;;;;;;15.40;5.80;;;14.00;99.90;;;;;;5070446;28;20035;-70
2023/09/14 06:23:04;;;;;;;17.98;6.22;;;13.90;99.90;;;;;;5071256;28;20054;-71
2023/09/14 06:25:30;;;;;;;19.55;6.03;;;14.00;99.90;;;;;;5077424;28;20025;-70
2023/09/14 06:27:55;;;;;;;13.65;6.28;;;14.00;99.90;;;;;;5072013;28;20032;-70
2023/09/14 06:30:21;;;;;;;9.75;5.90;;;14.00;99.90;;;;;;5077502;28;20020;-70
2023/09/14 06:32:47;;;;;;;10.05;6.20;;;14.00;99.90;;;;;;5065980;28;20032;-70
2023/09/14 06:35:13;;;;;;;11.07;5.85;;;14.10;99.90;;;;;;5080883;28;20500;-70
2023/09/14 06:37:38;;;;;;;10.93;5.97;;;14.10;99.90;;;;;;5066120;28;20035;-70
2023/09/14 06:40:06;;;;;;;14.43;6.80;;;14.10;99.90;;;;;;5073728;28;20032;-70
2023/09/14 06:42:32;;;;;;;10.60;5.95;;;14.10;99.90;;;;;;5068839;28;20029;-70
2023/09/14 06:44:58;;;;;;;11.80;6.15;;;14.00;99.90;;;;;;5067840;28;20554;-70
2023/09/14 06:47:24;;;;;;;10.52;6.43;;;14.10;99.90;;;;;;5071060;28;20578;-70
2023/09/14 06:49:50;;;;;;;16.73;7.47;;;14.10;99.90;;;;;;5071162;28;20378;-71
2023/09/14 06:52:15;;;;;;;11.50;7.20;;;14.20;99.90;;;;;;5075446;28;20024;-71
2023/09/14 06:54:41;;;;;;;14.05;6.93;;;14.30;99.90;;;;;;5078543;28;20133;-69
2023/09/14 06:57:07;;;;;;;17.17;8.00;;;14.30;99.90;;;;;;5078208;28;20048;-69
2023/09/14 06:59:33;;;;;;;12.25;7.43;;;14.40;99.90;;;;;;5075383;28;20091;-69
2023/09/14 07:01:59;;;;;;;15.18;8.40;;;14.40;99.90;;;;;;5074313;28;20020;-69
2023/09/14 07:04:25;;;;;;;26.83;8.55;;;14.40;99.90;;;;;;5077482;28;20032;-69
2023/09/14 07:06:51;;;;;;;28.70;9.57;;;14.50;99.90;;;;;;5073478;28;20111;-69
2023/09/14 07:09:16;;;;;;;22.67;9.07;;;14.50;99.90;;;;;;5072531;28;20482;-69
2023/09/14 07:11:42;;;;;;;22.52;10.32;;;14.50;99.90;;;;;;5078434;28;22299;-70
2023/09/14 07:14:08;;;;;;;18.38;10.73;;;14.60;99.90;;;;;;5073825;28;20424;-70
2023/09/14 07:16:33;;;;;;;14.75;8.93;;;14.60;99.90;;;;;;5069652;28;20358;-70
2023/09/14 07:19:00;;;;;;;17.73;9.48;;;14.60;99.90;;;;;;5071144;28;20102;-71
2023/09/14 07:21:27;;;;;;;15.68;8.98;;;14.70;99.90;;;;;;5065474;28;20056;-69
2023/09/14 07:23:52;;;;;;;22.75;14.52;;;14.70;99.90;;;;;;5075421;28;20016;-70
2023/09/14 07:26:18;;;;;;;19.52;11.77;;;14.70;99.90;;;;;;5068152;28;20029;-69
2023/09/14 07:28:44;;;;;;;23.73;12.98;;;14.70;99.90;;;;;;5074187;28;20120;-70
2023/09/14 07:31:10;;;;;;;26.83;15.63;;;14.80;99.90;;;;;;5074603;28;20054;-70
2023/09/14 07:33:35;;;;;;;28.63;17.48;;;14.90;99.90;;;;;;5069078;28;20032;-70
2023/09/14 07:36:01;;;;;;;23.27;13.93;;;15.00;99.90;;;;;;5089861;28;20020;-70
2023/09/14 07:38:27;;;;;;;22.33;13.30;;;15.10;99.90;;;;;;5075021;28;20037;-70
2023/09/14 07:40:53;;;;;;;21.58;12.70;;;15.20;99.90;;;;;;5076110;28;20459;-71
2023/09/14 07:43:18;;;;;;;31.17;18.02;;;15.20;99.90;;;;;;5077709;28;20032;-70
2023/09/14 07:45:44;;;;;;;24.08;15.18;;;15.30;99.90;;;;;;5074583;28;20025;-69
2023/09/14 07:48:10;;;;;;;36.00;18.90;;;15.40;99.90;;;;;;5078223;28;20033;-70
2023/09/14 07:50:40;;;;;;;35.50;21.42;;;15.50;99.90;;;;;;5074502;28;20089;-70
2023/09/14 07:53:10;;;;;;;40.80;20.05;;;15.70;99.90;;;;;;5083598;28;20082;-70
2023/09/14 07:55:36;;;;;;;43.13;21.00;;;15.70;99.90;;;;;;5075701;28;20039;-69
2023/09/14 07:58:02;;;;;;;35.15;20.90;;;15.90;99.90;;;;;;5072888;28;20843;-71
2023/09/14 08:00:28;;;;;;;32.10;19.92;;;16.00;99.90;;;;;;5078063;28;20020;-71
2023/09/14 08:02:54;;;;;;;37.03;21.83;;;16.10;99.90;;;;;;5072799;28;20086;-71
2023/09/14 08:05:20;;;;;;;38.53;20.75;;;16.20;99.90;;;;;;5075457;28;20024;-71
2023/09/14 08:07:45;;;;;;;34.20;19.95;;;16.30;99.90;;;;;;5075624;28;20044;-71
2023/09/14 08:10:12;;;;;;;29.17;19.17;;;16.40;99.90;;;;;;5079504;28;20063;-70
2023/09/14 08:12:38;;;;;;;49.97;19.73;;;16.50;99.90;;;;;;5083088;28;20029;-70
2023/09/14 08:15:04;;;;;;;36.05;20.38;;;16.60;99.90;;;;;;5074178;28;20066;-72
2023/09/14 08:17:30;;;;;;;37.10;19.85;;;16.70;99.90;;;;;;5069702;28;20111;-71
2023/09/14 08:19:56;;;;;;;30.80;19.45;;;16.70;99.90;;;;;;5071167;28;20043;-71
2023/09/14 08:22:23;;;;;;;39.35;20.52;;;16.80;99.90;;;;;;5063366;28;20028;-72
2023/09/14 08:24:52;;;;;;;31.13;18.90;;;16.90;99.90;;;;;;5073070;28;20157;-71
2023/09/14 08:27:18;;;;;;;35.45;20.08;;;17.10;99.90;;;;;;5073464;28;20020;-72
2023/09/14 08:29:45;;;;;;;37.85;20.70;;;17.10;99.90;;;;;;5070545;28;20103;-71
2023/09/14 08:32:11;;;;;;;33.60;19.92;;;17.20;99.90;;;;;;5071906;28;20028;-71
2023/09/14 08:34:38;;;;;;;38.03;20.95;;;17.40;99.90;;;;;;5077044;28;20116;-71
2023/09/14 08:37:04;;;;;;;34.60;20.75;;;17.40;99.90;;;;;;5077266;28;20111;-71
2023/09/14 08:39:30;;;;;;;39.78;20.40;;;17.60;99.90;;;;;;5075082;28;20029;-72
2023/09/14 08:41:55;;;;;;;31.92;18.50;;;17.60;99.90;;;;;;5077745;28;20507;-72
2023/09/14 08:44:22;;;;;;;36.67;19.92;;;17.70;99.90;;;;;;5071706;28;20384;-72
2023/09/14 08:46:48;;;;;;;31.75;19.38;;;17.70;99.90;;;;;;5073567;28;20025;-71
2023/09/14 08:49:17;;;;;;;31.00;20.00;;;17.90;99.90;;;;;;5071977;28;20036;-71
2023/09/14 08:51:44;;;;;;;35.03;20.98;;;17.90;99.90;;;;;;5062925;28;20074;-71
2023/09/14 08:54:10;;;;;;;35.28;20.92;;;18.00;99.90;;;;;;5074481;28;20064;-72
2023/09/14 08:56:36;;;;;;;35.22;19.58;;;18.10;99.90;;;;;;5070783;28;20087;-71
2023/09/14 08:59:04;;;;;;;36.10;20.88;;;18.20;99.90;;;;;;5079007;28;20039;-72
2023/09/14 09:01:31;;;;;;;29.33;17.60;;;18.30;99.90;;;;;;5083058;28;20026;-72
2023/09/14 09:03:57;;;;;;;25.27;17.05;;;18.40;99.90;;;;;;5066315;28;20028;-72
2023/09/14 09:06:23;;;;;;;25.17;15.30;;;18.40;99.90;;;;;;5072910;28;20538;-71
2023/09/14 09:08:49;;;;;;;30.27;16.17;;;18.50;99.90;;;;;;5067066;28;20540;-71
2023/09/14 09:11:15;;;;;;;21.60;13.63;;;18.50;99.90;;;;;;5079664;28;20036;-72
2023/09/14 09:13:46;;;;;;;23.70;16.02;;;18.60;99.90;;;;;;5068055;28;20070;-71
2023/09/14 09:16:12;;;;;;;26.17;14.05;;;18.60;99.90;;;;;;5071701;28;20103;-72
2023/09/14 09:19:04;;;;;;;26.38;14.50;;;18.70;99.90;;;;;;5077582;28;20385;-72
2023/09/14 09:21:34;;;;;;;32.03;18.17;;;18.80;99.90;;;;;;5072124;28;20106;-70
2023/09/14 09:24:03;;;;;;;24.83;16.38;;;18.80;99.90;;;;;;5080397;28;20031;-71
2023/09/14 09:26:36;;;;;;;26.17;16.83;;;18.70;99.90;;;;;;5076240;28;20474;-70
2023/09/14 09:29:22;;;;;;;22.52;15.73;;;18.80;99.90;;;;;;5072943;28;20031;-70
2023/09/14 09:31:52;;;;;;;24.60;14.07;;;18.90;99.90;;;;;;5072749;28;20033;-71
2023/09/14 09:34:33;;;;;;;27.52;14.07;;;18.80;99.90;;;;;;5072359;28;20027;-71
2023/09/14 09:36:59;;;;;;;23.77;14.25;;;18.90;99.90;;;;;;5078762;28;20024;-71
2023/09/14 09:39:25;;;;;;;25.85;15.52;;;19.00;99.90;;;;;;5071950;28;20126;-71
2023/09/14 09:41:52;;;;;;;25.63;16.95;;;19.40;99.90;;;;;;5079566;28;20166;-71
2023/09/14 09:44:18;;;;;;;18.02;11.95;;;19.50;99.90;;;;;;5067032;28;20021;-71
2023/09/14 09:46:44;;;;;;;10.20;7.72;;;19.60;99.90;;;;;;5073923;28;20024;-71
2023/09/14 09:49:22;;;;;;;16.17;9.18;;;19.60;99.90;;;;;;5073366;28;20067;-71
2023/09/14 09:51:50;;;;;;;13.38;7.40;;;19.80;99.90;;;;;;5073467;28;20067;-71
2023/09/14 09:54:19;;;;;;;17.45;10.38;;;20.00;99.90;;;;;;5077757;28;20381;-71
2023/09/14 09:56:45;;;;;;;14.27;10.40;;;20.10;99.90;;;;;;5066351;28;20016;-71
2023/09/14 09:59:15;;;;;;;14.45;7.43;;;20.00;99.90;;;;;;5068485;28;20033;-71
2023/09/14 10:01:45;;;;;;;13.65;8.95;;;19.90;99.90;;;;;;5067821;28;20024;-71
2023/09/14 10:04:11;;;;;;;9.18;7.50;;;19.90;99.90;;;;;;5072565;28;20077;-71
2023/09/14 10:06:38;;;;;;;13.27;7.55;;;20.20;99.90;;;;;;5072886;28;20013;-71
2023/09/14 10:09:08;;;;;;;12.23;8.02;;;20.30;99.90;;;;;;5073833;28;20039;-72
2023/09/14 10:11:35;;;;;;;15.13;7.55;;;20.60;99.90;;;;;;5069659;28;20024;-72
2023/09/14 10:14:04;;;;;;;14.43;8.10;;;20.60;99.90;;;;;;5072492;28;20497;-72
2023/09/14 10:16:38;;;;;;;13.35;9.25;;;20.50;99.90;;;;;;5073640;28;20062;-72
2023/09/14 10:19:06;;;;;;;13.20;8.65;;;20.50;99.90;;;;;;5072416;28;20035;-72
2023/09/14 10:21:32;;;;;;;12.77;6.80;;;20.60;99.90;;;;;;5073207;28;20104;-72
2023/09/14 10:24:00;;;;;;;11.40;6.80;;;20.70;99.90;;;;;;5082692;28;20021;-72
2023/09/14 10:26:27;;;;;;;11.23;6.47;;;20.70;99.90;;;;;;5070946;28;20380;-70
2023/09/14 10:28:54;;;;;;;8.52;6.03;;;21.00;99.90;;;;;;5073574;28;20017;-70
2023/09/14 10:31:23;;;;;;;8.07;5.95;;;21.10;99.90;;;;;;5069689;28;20028;-72
2023/09/14 10:33:51;;;;;;;15.52;6.65;;;21.20;99.90;;;;;;5070276;28;20016;-72
2023/09/14 10:36:18;;;;;;;11.75;6.32;;;21.30;99.90;;;;;;5078498;28;20033;-72
2023/09/14 10:38:47;;;;;;;9.35;6.63;;;21.40;99.90;;;;;;5071998;28;20035;-72
2023/09/14 10:41:14;;;;;;;10.13;6.43;;;21.60;99.90;;;;;;5077885;28;20530;-71
2023/09/14 10:43:40;;;;;;;8.88;6.00;;;21.60;99.90;;;;;;5076551;28;20028;-71
2023/09/14 10:46:17;;;;;;;9.32;7.25;;;21.50;99.90;;;;;;5072630;28;20499;-71
2023/09/14 10:48:44;;;;;;;9.60;7.40;;;21.70;99.90;;;;;;5077207;28;20115;-71
2023/09/14 10:51:11;;;;;;;8.73;6.15;;;21.90;99.90;;;;;;5067062;28;20143;-73
2023/09/14 10:53:40;;;;;;;8.57;6.43;;;22.00;99.90;;;;;;5070030;28;20484;-71
2023/09/14 10:56:19;;;;;;;7.10;5.60;;;22.10;99.90;;;;;;5069156;28;20501;-71
2023/09/14 10:58:48;;;;;;;7.70;5.82;;;21.90;99.90;;;;;;5074144;28;20035;-71
2023/09/14 11:01:21;;;;;;;9.05;6.10;;;21.70;99.90;;;;;;5074341;28;20504;-71
2023/09/14 11:04:19;;;;;;;7.53;5.85;;;21.90;99.90;;;;;;5064789;28;20385;-71
2023/09/14 11:06:51;;;;;;;8.38;6.18;;;22.10;99.90;;;;;;5070101;28;20036;-70
2023/09/14 11:09:18;;;;;;;10.82;5.90;;;22.20;99.90;;;;;;5065912;28;20484;-70
2023/09/14 11:11:45;;;;;;;11.20;7.22;;;22.10;99.90;;;;;;5080077;28;20039;-70
2023/09/14 11:14:14;;;;;;;9.18;6.63;;;22.30;99.90;;;;;;5074050;28;20477;-71
2023/09/14 11:16:42;;;;;;;10.15;6.10;;;22.50;99.90;;;;;;5084555;28;20026;-71
2023/09/14 11:19:08;;;;;;;10.65;6.68;;;22.60;99.90;;;;;;5074138;28;20044;-71
2023/09/14 11:21:34;;;;;;;9.70;5.78;;;22.40;99.90;;;;;;5082704;28;20020;-71
2023/09/14 11:24:02;;;;;;;7.63;4.90;;;22.30;99.90;;;;;;5071066;28;20043;-71
2023/09/14 11:26:32;;;;;;;7.55;5.05;;;22.20;99.90;;;;;;5075691;28;20032;-71
2023/09/14 11:28:59;;;;;;;6.97;5.47;;;21.90;99.90;;;;;;5075637;28;20492;-71
2023/09/14 11:31:34;;;;;;;10.18;5.13;;;21.70;99.90;;;;;;5069820;28;20024;-71
2023/09/14 11:34:11;;;;;;;8.45;6.03;;;21.90;99.90;;;;;;5076829;28;20035;-71
2023/09/14 11:36:37;;;;;;;9.27;5.78;;;21.80;99.90;;;;;;5059817;28;20029;-70
2023/09/14 11:39:13;;;;;;;6.90;5.60;;;21.80;99.90;;;;;;5078428;28;20040;-71
2023/09/14 11:41:56;;;;;;;5.18;4.68;;;21.40;99.90;;;;;;5071232;28;20027;-71
2023/09/14 11:44:23;;;;;;;7.00;4.80;;;21.50;99.90;;;;;;5076107;28;20022;-71
2023/09/14 11:46:49;;;;;;;6.80;3.80;;;21.60;99.90;;;;;;5075061;28;20032;-71
2023/09/14 11:49:18;;;;;;;7.28;3.83;;;21.60;99.90;;;;;;5076520;28;20021;-71
2023/09/14 11:51:44;;;;;;;4.47;3.10;;;21.70;99.90;;;;;;5067559;28;20039;-71
2023/09/14 11:54:10;;;;;;;6.25;4.13;;;21.70;99.90;;;;;;5077908;28;20029;-71
2023/09/14 11:56:36;;;;;;;4.38;3.30;;;21.60;99.90;;;;;;5076155;28;20031;-71
2023/09/14 11:59:03;;;;;;;4.65;3.10;;;21.70;99.90;;;;;;5071815;28;20044;-71
2023/09/14 12:01:33;;;;;;;3.88;3.05;;;21.70;99.90;;;;;;5075204;28;20016;-71
2023/09/14 12:03:59;;;;;;;5.38;3.38;;;21.60;99.90;;;;;;5072413;28;20036;-71
2023/09/14 12:06:27;;;;;;;6.38;4.28;;;21.60;99.90;;;;;;5078958;28;20028;-71
2023/09/14 12:08:52;;;;;;;4.43;3.53;;;21.60;99.90;;;;;;5068789;28;20036;-72
2023/09/14 12:11:21;;;;;;;4.78;3.45;;;21.60;99.90;;;;;;5073848;28;20024;-71
2023/09/14 12:13:55;;;;;;;5.05;3.50;;;21.40;99.90;;;;;;5072678;28;20028;-72
2023/09/14 12:16:25;;;;;;;3.25;2.92;;;21.40;99.90;;;;;;5076187;28;20468;-72
2023/09/14 12:18:52;;;;;;;5.18;3.67;;;21.40;99.90;;;;;;5068862;28;20047;-71
2023/09/14 12:21:19;;;;;;;4.45;3.72;;;21.40;99.90;;;;;;5072008;28;20017;-71
2023/09/14 12:23:50;;;;;;;6.75;4.38;;;21.40;99.90;;;;;;5076865;28;20029;-71
2023/09/14 12:26:21;;;;;;;5.95;4.82;;;21.40;99.90;;;;;;5070899;28;20042;-71
2023/09/14 12:28:58;;;;;;;5.88;4.68;;;21.30;99.90;;;;;;5079127;28;20121;-71
2023/09/14 12:31:26;;;;;;;6.57;5.07;;;21.40;99.90;;;;;;5069600;28;20008;-71
2023/09/14 12:33:53;;;;;;;5.97;3.97;;;21.30;99.90;;;;;;5083723;28;20028;-71
2023/09/14 12:36:19;;;;;;;5.22;4.32;;;21.30;99.90;;;;;;5072314;28;20465;-71
2023/09/14 12:38:48;;;;;;;5.65;3.90;;;21.30;99.90;;;;;;5067908;28;20053;-71
2023/09/14 12:41:14;;;;;;;7.50;4.15;;;21.30;99.90;;;;;;5078558;28;20389;-71